Time;durP1;ratioP1;P1;durP2;ratioP2;P2;SDS_P1;SDS_P2;PMS_P1;PMS_P2;Temp;Humidity;BMP_temperature;BMP_pressure;BME280_temperature;BME280_humidity;BME280_pressure;Samples;Min_cycle;Max_cycle;Signal;HPM_P1;HPM_P2
2023/11/07 00:00:19;;;;;;;1.20;0.55;;;10.60;99.90;;;;;;5046858;28;20119;-90
2023/11/07 00:02:45;;;;;;;1.38;0.30;;;10.50;99.90;;;;;;5041474;28;20040;-88
2023/11/07 00:05:10;;;;;;;1.33;0.32;;;10.50;99.90;;;;;;5059308;28;20461;-88
2023/11/07 00:07:37;;;;;;;0.65;0.52;;;10.50;99.90;;;;;;5040918;28;20082;-88
2023/11/07 00:10:03;;;;;;;0.63;0.38;;;10.50;99.90;;;;;;5042867;28;20021;-90
2023/11/07 00:12:28;;;;;;;0.80;0.40;;;10.50;99.90;;;;;;5041516;28;20028;-90
2023/11/07 00:14:54;;;;;;;1.48;0.43;;;10.50;99.90;;;;;;5059766;28;20020;-88
2023/11/07 00:17:20;;;;;;;0.90;0.40;;;10.40;99.90;;;;;;5042013;28;20067;-88
2023/11/07 00:19:46;;;;;;;0.98;0.30;;;10.50;99.90;;;;;;5041656;28;20037;-89
2023/11/07 00:22:13;;;;;;;0.65;0.30;;;10.50;99.90;;;;;;5057727;28;20024;-89
2023/11/07 00:24:39;;;;;;;2.53;0.25;;;10.50;99.90;;;;;;5041717;28;20052;-89
2023/11/07 00:27:05;;;;;;;1.25;0.50;;;10.50;99.90;;;;;;5039382;28;20017;-89
2023/11/07 00:29:30;;;;;;;1.42;0.32;;;10.50;99.90;;;;;;5039858;28;20053;-89
2023/11/07 00:31:56;;;;;;;1.10;0.40;;;10.50;99.90;;;;;;5039116;28;20108;-89
2023/11/07 00:34:22;;;;;;;2.78;0.35;;;10.50;99.90;;;;;;5056942;28;20017;-89
2023/11/07 00:36:48;;;;;;;0.57;0.43;;;10.40;99.90;;;;;;5039601;28;20400;-89
2023/11/07 00:39:16;;;;;;;1.23;0.40;;;10.50;99.90;;;;;;5039338;28;20032;-90
2023/11/07 00:41:44;;;;;;;1.00;0.25;;;10.50;99.90;;;;;;5056994;28;20065;-90
2023/11/07 00:44:10;;;;;;;0.30;0.28;;;10.50;99.90;;;;;;5039310;28;20086;-91
2023/11/07 00:46:36;;;;;;;1.08;0.40;;;10.50;99.90;;;;;;5039341;28;20135;-90
2023/11/07 00:49:05;;;;;;;1.55;0.30;;;10.50;99.90;;;;;;5038696;28;20032;-91
2023/11/07 00:51:31;;;;;;;2.50;0.40;;;10.40;99.90;;;;;;5037981;28;20024;-90
2023/11/07 00:53:57;;;;;;;2.40;0.45;;;10.50;99.90;;;;;;5038409;28;20021;-90
2023/11/07 00:56:25;;;;;;;1.65;0.30;;;10.50;99.90;;;;;;5038695;28;20021;-90
2023/11/07 00:58:50;;;;;;;3.20;0.40;;;10.40;99.90;;;;;;5056555;28;20048;-90
2023/11/07 01:01:17;;;;;;;1.83;0.30;;;10.50;99.90;;;;;;5038208;28;20373;-90
2023/11/07 01:03:44;;;;;;;3.75;0.38;;;10.50;99.90;;;;;;5039260;28;20115;-90
2023/11/07 01:06:10;;;;;;;0.60;0.30;;;10.50;99.90;;;;;;5056035;28;20041;-91
2023/11/07 01:08:38;;;;;;;1.55;0.70;;;10.50;99.90;;;;;;5035486;28;20103;-91
2023/11/07 01:11:05;;;;;;;1.00;0.28;;;10.50;99.90;;;;;;5034985;28;20540;-91
2023/11/07 01:13:31;;;;;;;0.90;0.25;;;10.50;99.90;;;;;;5035669;28;20025;-90
2023/11/07 01:15:56;;;;;;;1.02;0.20;;;10.50;99.90;;;;;;5035172;28;20017;-89
2023/11/07 01:18:22;;;;;;;1.50;0.28;;;10.50;99.90;;;;;;5036255;28;20029;-88
2023/11/07 01:20:48;;;;;;;0.73;0.25;;;10.50;99.90;;;;;;5035817;28;20476;-88
2023/11/07 01:23:14;;;;;;;0.68;0.20;;;10.50;99.90;;;;;;5034998;28;20104;-88
2023/11/07 01:25:40;;;;;;;1.90;0.30;;;10.50;99.90;;;;;;5035116;28;20029;-88
2023/11/07 01:28:06;;;;;;;0.95;0.35;;;10.50;99.90;;;;;;5036143;28;20049;-89
2023/11/07 01:30:31;;;;;;;3.47;0.30;;;10.50;99.90;;;;;;5035224;28;20087;-90
2023/11/07 01:32:57;;;;;;;1.75;0.38;;;10.40;99.90;;;;;;5036027;28;20100;-91
2023/11/07 01:35:24;;;;;;;3.63;0.40;;;10.50;99.90;;;;;;5035049;28;20052;-90
2023/11/07 01:37:51;;;;;;;1.00;0.22;;;10.40;99.90;;;;;;5034889;28;20021;-90
2023/11/07 01:40:17;;;;;;;1.58;0.22;;;10.40;99.90;;;;;;5034348;28;20033;-89
2023/11/07 01:42:48;;;;;;;0.60;0.20;;;10.40;99.90;;;;;;5034721;28;20017;-90
2023/11/07 01:45:14;;;;;;;1.63;0.30;;;10.30;99.90;;;;;;5034269;28;20392;-90
2023/11/07 01:47:43;;;;;;;1.77;0.13;;;10.30;99.90;;;;;;5034746;28;20025;-89
2023/11/07 01:50:12;;;;;;;0.90;0.32;;;10.30;99.90;;;;;;5034208;28;20124;-89
2023/11/07 01:52:39;;;;;;;0.63;0.20;;;10.30;99.90;;;;;;5034729;28;20028;-90
2023/11/07 01:55:13;;;;;;;2.13;0.20;;;10.30;99.90;;;;;;5034092;28;20030;-89
2023/11/07 01:57:44;;;;;;;0.88;0.40;;;10.30;99.90;;;;;;5034558;28;20025;-90
2023/11/07 02:00:12;;;;;;;1.45;0.28;;;10.40;99.90;;;;;;5034071;28;20037;-89
2023/11/07 02:02:39;;;;;;;1.67;0.38;;;10.30;99.90;;;;;;5034154;28;20025;-89
2023/11/07 02:05:06;;;;;;;1.40;0.30;;;10.30;99.90;;;;;;5035020;28;20028;-90
2023/11/07 02:07:32;;;;;;;0.40;0.20;;;10.30;99.90;;;;;;5034392;28;20026;-90
2023/11/07 02:09:58;;;;;;;1.95;0.30;;;10.30;99.90;;;;;;5037181;28;20036;-91
2023/11/07 02:12:24;;;;;;;0.40;0.20;;;10.30;99.90;;;;;;5055083;28;20191;-92
2023/11/07 02:14:50;;;;;;;0.57;0.30;;;10.40;99.90;;;;;;5037743;28;20462;-90
2023/11/07 02:17:15;;;;;;;0.50;0.20;;;10.40;99.90;;;;;;5037000;28;20021;-91
2023/11/07 02:19:41;;;;;;;1.13;0.20;;;10.40;99.90;;;;;;5037505;28;20025;-91
2023/11/07 02:22:12;;;;;;;1.20;0.20;;;10.40;99.90;;;;;;5036521;28;20040;-91
2023/11/07 02:24:38;;;;;;;0.40;0.17;;;10.40;99.90;;;;;;5055067;28;20032;-91
2023/11/07 02:27:06;;;;;;;0.82;0.30;;;10.30;99.90;;;;;;5037054;28;20036;-91
2023/11/07 02:29:32;;;;;;;0.50;0.10;;;10.30;99.90;;;;;;5037087;28;20025;-90
2023/11/07 02:31:59;;;;;;;1.67;0.30;;;10.30;99.90;;;;;;5037131;28;20113;-90
2023/11/07 02:34:25;;;;;;;1.48;0.20;;;10.30;99.90;;;;;;5037099;28;20453;-90
2023/11/07 02:36:51;;;;;;;0.50;0.20;;;10.30;99.90;;;;;;5037132;28;20116;-90
2023/11/07 02:39:17;;;;;;;1.67;0.30;;;10.30;99.90;;;;;;5036797;28;20017;-90
2023/11/07 02:41:44;;;;;;;2.33;0.40;;;10.40;99.90;;;;;;5037024;28;20123;-90
2023/11/07 02:44:15;;;;;;;1.30;0.17;;;10.40;99.90;;;;;;5054086;28;20049;-91
2023/11/07 02:46:41;;;;;;;2.15;0.20;;;10.40;99.90;;;;;;5054559;28;20450;-90
2023/11/07 02:49:07;;;;;;;1.98;0.25;;;10.30;99.90;;;;;;5036882;28;20035;-89
2023/11/07 02:51:33;;;;;;;1.85;0.20;;;10.30;99.90;;;;;;5054390;28;20033;-89
2023/11/07 02:53:59;;;;;;;1.75;0.30;;;10.40;99.90;;;;;;5036808;28;20029;-89
2023/11/07 02:56:28;;;;;;;1.77;0.30;;;10.40;99.90;;;;;;5037013;28;20032;-88
2023/11/07 02:58:55;;;;;;;2.40;0.30;;;10.40;99.90;;;;;;5037018;28;20032;-89
2023/11/07 03:01:21;;;;;;;0.35;0.25;;;10.40;99.90;;;;;;5036489;28;20086;-89
2023/11/07 03:03:50;;;;;;;1.77;0.28;;;10.40;99.90;;;;;;5036880;28;20110;-89
2023/11/07 03:06:19;;;;;;;2.80;0.22;;;10.40;99.90;;;;;;5035914;28;20025;-89
2023/11/07 03:08:45;;;;;;;1.67;0.28;;;10.30;99.90;;;;;;5054049;28;20044;-89
2023/11/07 03:11:10;;;;;;;0.77;0.28;;;10.40;99.90;;;;;;5036483;28;20449;-89
2023/11/07 03:13:36;;;;;;;3.30;0.45;;;10.40;99.90;;;;;;5036868;28;20458;-89
2023/11/07 03:16:04;;;;;;;1.27;0.30;;;10.40;99.90;;;;;;5052829;28;20017;-89
2023/11/07 03:18:29;;;;;;;1.70;0.20;;;10.40;99.90;;;;;;5036667;28;20025;-90
2023/11/07 03:20:55;;;;;;;1.85;0.30;;;10.40;99.90;;;;;;5036024;28;20103;-89
2023/11/07 03:23:21;;;;;;;0.82;0.32;;;10.40;99.90;;;;;;5035944;28;20506;-90
2023/11/07 03:25:47;;;;;;;0.55;0.22;;;10.40;99.90;;;;;;5036711;28;20018;-89
2023/11/07 03:28:13;;;;;;;0.52;0.20;;;10.40;99.90;;;;;;5036017;28;20104;-90
2023/11/07 03:30:38;;;;;;;1.85;0.30;;;10.30;99.90;;;;;;5036540;28;20025;-89
2023/11/07 03:33:04;;;;;;;1.20;0.25;;;10.30;99.90;;;;;;5035857;28;20029;-89
2023/11/07 03:35:30;;;;;;;0.40;0.30;;;10.30;99.90;;;;;;5036647;28;20037;-90
2023/11/07 03:37:56;;;;;;;1.30;0.32;;;10.40;99.90;;;;;;5036364;28;20370;-90
2023/11/07 03:40:21;;;;;;;2.08;0.40;;;10.30;99.90;;;;;;5053380;28;20499;-90
2023/11/07 03:42:47;;;;;;;1.42;0.30;;;10.30;99.90;;;;;;5036521;28;20400;-90
2023/11/07 03:45:13;;;;;;;0.50;0.40;;;10.30;99.90;;;;;;5035857;28;20090;-90
2023/11/07 03:47:39;;;;;;;2.38;0.30;;;10.30;99.90;;;;;;5054220;28;20056;-90
2023/11/07 03:50:05;;;;;;;0.40;0.20;;;10.30;99.90;;;;;;5035839;28;20071;-90
2023/11/07 03:52:31;;;;;;;0.30;0.20;;;10.30;99.90;;;;;;5036470;28;20036;-91
2023/11/07 03:54:57;;;;;;;2.28;0.52;;;10.40;99.90;;;;;;5053476;28;20393;-90
2023/11/07 03:57:23;;;;;;;1.27;0.10;;;10.40;99.90;;;;;;5036162;28;20021;-91
2023/11/07 03:59:50;;;;;;;0.80;0.32;;;10.40;99.90;;;;;;5036285;28;20020;-91
2023/11/07 04:02:16;;;;;;;1.05;0.22;;;10.40;99.90;;;;;;5035751;28;20052;-91
2023/11/07 04:04:42;;;;;;;0.73;0.30;;;10.40;99.90;;;;;;5036326;28;20100;-91
2023/11/07 04:07:08;;;;;;;0.98;0.20;;;10.40;99.90;;;;;;5036000;28;20109;-91
2023/11/07 04:09:34;;;;;;;1.63;0.30;;;10.40;99.90;;;;;;5036142;28;20045;-90
2023/11/07 04:12:00;;;;;;;0.28;0.22;;;10.40;99.90;;;;;;5036188;28;20060;-90
2023/11/07 04:14:25;;;;;;;2.20;0.20;;;10.50;99.90;;;;;;5035525;28;20013;-90
2023/11/07 04:16:51;;;;;;;2.47;0.38;;;10.50;99.90;;;;;;5036178;28;20575;-87
2023/11/07 04:19:17;;;;;;;0.90;0.20;;;10.50;99.90;;;;;;5035443;28;20029;-92
2023/11/07 04:21:43;;;;;;;0.32;0.28;;;10.50;99.90;;;;;;5053439;28;20103;-91
2023/11/07 04:24:10;;;;;;;1.00;0.30;;;10.50;99.90;;;;;;5052986;28;20036;-89
2023/11/07 04:26:35;;;;;;;1.85;0.30;;;10.50;99.90;;;;;;5037493;28;20017;-90
2023/11/07 04:29:04;;;;;;;1.08;0.25;;;10.60;99.90;;;;;;5039615;28;20088;-89
2023/11/07 04:31:33;;;;;;;0.45;0.40;;;10.60;99.90;;;;;;5039427;28;20465;-91
2023/11/07 04:33:59;;;;;;;0.40;0.20;;;10.60;99.90;;;;;;5039661;28;20025;-90
2023/11/07 04:36:24;;;;;;;1.17;0.30;;;10.60;99.90;;;;;;5039107;28;20416;-90
2023/11/07 04:38:53;;;;;;;1.50;0.30;;;10.60;99.90;;;;;;5039323;28;20021;-89
2023/11/07 04:41:20;;;;;;;1.35;0.20;;;10.60;99.90;;;;;;5038917;28;20029;-89
2023/11/07 04:43:45;;;;;;;1.85;0.30;;;10.70;99.90;;;;;;5039526;28;20025;-90
2023/11/07 04:46:13;;;;;;;0.77;0.28;;;10.60;99.90;;;;;;5039349;28;20120;-90
2023/11/07 04:48:38;;;;;;;1.58;0.25;;;10.60;99.90;;;;;;5039211;28;20087;-89
2023/11/07 04:51:07;;;;;;;1.80;0.40;;;10.60;99.90;;;;;;5039651;28;20458;-89
2023/11/07 04:53:33;;;;;;;0.38;0.20;;;10.70;99.90;;;;;;5056906;28;20025;-91
2023/11/07 04:55:59;;;;;;;1.92;0.40;;;10.60;99.90;;;;;;5056463;28;20065;-89
2023/11/07 04:58:25;;;;;;;4.63;0.40;;;10.70;99.90;;;;;;5043912;28;20029;-91
2023/11/07 05:00:53;;;;;;;0.85;0.40;;;10.70;99.90;;;;;;5059031;28;20021;-90
2023/11/07 05:03:19;;;;;;;1.20;0.20;;;10.70;99.90;;;;;;5058332;28;20029;-91
2023/11/07 05:05:44;;;;;;;1.17;0.50;;;10.70;99.90;;;;;;5059134;28;20024;-90
2023/11/07 05:08:10;;;;;;;1.98;0.38;;;10.70;99.90;;;;;;5058182;28;20041;-89
2023/11/07 05:10:36;;;;;;;0.30;0.20;;;10.70;99.90;;;;;;5059080;28;20105;-90
2023/11/07 05:13:01;;;;;;;1.30;0.30;;;10.70;99.90;;;;;;5076016;28;20020;-91
2023/11/07 05:15:27;;;;;;;1.17;0.52;;;10.70;99.90;;;;;;5058641;28;20072;-92
2023/11/07 05:17:54;;;;;;;1.70;0.30;;;10.70;99.90;;;;;;5058689;28;20046;-89
2023/11/07 05:20:19;;;;;;;1.65;0.32;;;10.70;99.90;;;;;;5058177;28;20483;-93
2023/11/07 05:22:45;;;;;;;1.10;0.40;;;10.70;99.90;;;;;;5058899;28;20024;-91
2023/11/07 05:25:11;;;;;;;1.10;0.40;;;10.70;99.90;;;;;;5058252;28;20484;-91
2023/11/07 05:27:36;;;;;;;0.77;0.30;;;10.70;99.90;;;;;;5075743;28;20031;-90
2023/11/07 05:30:03;;;;;;;0.65;0.35;;;10.70;99.90;;;;;;5058770;28;20510;-90
2023/11/07 05:32:28;;;;;;;1.77;0.70;;;10.70;99.90;;;;;;5057663;28;20020;-89
2023/11/07 05:34:56;;;;;;;1.48;0.60;;;10.70;99.90;;;;;;5075498;28;20027;-90
2023/11/07 05:37:21;;;;;;;1.08;0.60;;;10.70;99.90;;;;;;5057608;28;20453;-89
2023/11/07 05:39:47;;;;;;;2.97;0.77;;;10.70;99.90;;;;;;5058075;28;20024;-91
2023/11/07 05:42:13;;;;;;;1.10;0.30;;;10.70;99.90;;;;;;5057508;28;20112;-91
2023/11/07 05:44:41;;;;;;;0.95;0.40;;;10.70;99.90;;;;;;5058621;28;20115;-91
2023/11/07 05:47:07;;;;;;;1.10;0.52;;;10.70;99.90;;;;;;5057846;28;20028;-92
2023/11/07 05:49:34;;;;;;;2.13;0.63;;;10.70;99.90;;;;;;5057495;28;20047;-91
2023/11/07 05:52:01;;;;;;;3.40;0.32;;;10.60;99.90;;;;;;5057654;28;20120;-90
2023/11/07 05:54:26;;;;;;;1.33;0.40;;;10.70;99.90;;;;;;5057109;28;20016;-89
2023/11/07 05:56:52;;;;;;;1.50;0.50;;;10.60;99.90;;;;;;5057371;28;20453;-91
2023/11/07 05:59:18;;;;;;;2.97;0.90;;;10.70;99.90;;;;;;5057170;28;20021;-89
2023/11/07 06:01:44;;;;;;;4.80;1.00;;;10.60;99.90;;;;;;5057948;28;20032;-88
2023/11/07 06:04:29;;;;;;;1.65;0.63;;;10.60;99.90;;;;;;5058041;28;20028;-88
2023/11/07 06:06:55;;;;;;;4.32;0.70;;;10.60;99.90;;;;;;5054603;28;20017;-88
2023/11/07 06:09:20;;;;;;;1.58;0.43;;;10.60;99.90;;;;;;5049310;28;20033;-88
2023/11/07 06:11:46;;;;;;;2.03;0.40;;;10.60;99.90;;;;;;5049160;28;20448;-89
2023/11/07 06:14:12;;;;;;;0.63;0.40;;;10.60;99.90;;;;;;5046877;28;20452;-89
2023/11/07 06:16:40;;;;;;;1.15;0.50;;;10.60;99.90;;;;;;5049193;28;20024;-88
2023/11/07 06:19:06;;;;;;;0.93;0.43;;;10.60;99.90;;;;;;5047709;28;20139;-89
2023/11/07 06:21:32;;;;;;;3.08;0.60;;;10.60;99.90;;;;;;5041661;28;20513;-88
2023/11/07 06:23:57;;;;;;;2.50;0.35;;;10.60;99.90;;;;;;5056783;28;20094;-89
2023/11/07 06:26:23;;;;;;;1.85;0.88;;;10.60;99.90;;;;;;5037030;28;20053;-88
2023/11/07 06:28:48;;;;;;;1.40;0.50;;;10.60;99.90;;;;;;5037115;28;20052;-89
2023/11/07 06:31:25;;;;;;;3.15;0.30;;;10.60;99.90;;;;;;5036689;28;20025;-88
2023/11/07 06:33:51;;;;;;;0.95;0.30;;;10.50;99.90;;;;;;5036846;28;20052;-88
2023/11/07 06:36:17;;;;;;;1.73;0.43;;;10.50;99.90;;;;;;5036582;28;20025;-89
2023/11/07 06:38:42;;;;;;;1.13;0.40;;;10.50;99.90;;;;;;5054664;28;20017;-88
2023/11/07 06:41:09;;;;;;;0.90;0.32;;;10.50;99.90;;;;;;5036776;28;20457;-88
2023/11/07 06:43:35;;;;;;;0.60;0.30;;;10.40;99.90;;;;;;5036401;28;20060;-89
2023/11/07 06:46:02;;;;;;;2.08;0.73;;;10.50;99.90;;;;;;5054664;28;20013;-89
2023/11/07 06:48:28;;;;;;;2.38;0.30;;;10.50;99.90;;;;;;5036662;28;20024;-88
2023/11/07 06:50:54;;;;;;;0.88;0.30;;;10.50;99.90;;;;;;5036871;28;20124;-89
2023/11/07 06:53:20;;;;;;;1.65;0.60;;;10.50;99.90;;;;;;5036800;28;20346;-89
2023/11/07 06:55:46;;;;;;;1.35;0.40;;;10.40;99.90;;;;;;5054237;28;20029;-88
2023/11/07 06:58:12;;;;;;;1.25;0.50;;;10.50;99.90;;;;;;5054168;28;20016;-90
2023/11/07 07:00:40;;;;;;;1.38;0.57;;;10.40;99.90;;;;;;5036184;28;20361;-90
2023/11/07 07:03:06;;;;;;;1.92;0.50;;;10.50;99.90;;;;;;5036897;28;20059;-90
2023/11/07 07:05:32;;;;;;;2.25;1.15;;;10.40;99.90;;;;;;5036419;28;20377;-90
2023/11/07 07:08:00;;;;;;;1.42;0.68;;;10.50;99.90;;;;;;5056311;28;20044;-90
2023/11/07 07:10:26;;;;;;;3.88;0.77;;;10.50;99.90;;;;;;5043011;28;20078;-88
2023/11/07 07:12:53;;;;;;;3.10;0.70;;;10.50;99.90;;;;;;5044144;28;20025;-90
2023/11/07 07:15:19;;;;;;;2.13;0.60;;;10.50;99.90;;;;;;5061013;28;20011;-89
2023/11/07 07:17:45;;;;;;;4.60;0.98;;;10.50;99.90;;;;;;5061539;28;20032;-90
2023/11/07 07:20:14;;;;;;;3.67;0.90;;;10.50;99.90;;;;;;5039826;28;20446;-89
2023/11/07 07:22:44;;;;;;;3.50;0.55;;;10.60;99.90;;;;;;5036306;28;20249;-91
2023/11/07 07:25:15;;;;;;;1.67;0.70;;;10.60;99.90;;;;;;5036833;28;20032;-90
2023/11/07 07:27:47;;;;;;;1.40;0.50;;;10.60;99.90;;;;;;5036515;28;20095;-91
2023/11/07 07:30:20;;;;;;;0.82;0.55;;;10.60;99.90;;;;;;5036992;28;20037;-91
2023/11/07 07:32:49;;;;;;;1.55;0.52;;;10.60;99.90;;;;;;5036867;28;20028;-90
2023/11/07 07:35:16;;;;;;;1.92;0.70;;;10.60;99.90;;;;;;5054127;28;20021;-91
2023/11/07 07:37:42;;;;;;;3.85;0.65;;;10.70;99.90;;;;;;5036025;28;20021;-90
2023/11/07 07:40:14;;;;;;;5.20;0.70;;;10.70;99.90;;;;;;5036402;28;20021;-90
2023/11/07 07:42:43;;;;;;;4.63;0.60;;;10.70;99.90;;;;;;5036086;28;20025;-90
2023/11/07 07:45:11;;;;;;;2.33;0.45;;;10.70;99.90;;;;;;5036865;28;20025;-89
2023/11/07 07:47:37;;;;;;;1.98;0.40;;;10.70;99.90;;;;;;5035545;28;20407;-89
2023/11/07 07:50:10;;;;;;;4.32;0.50;;;10.70;99.90;;;;;;5036633;28;20063;-93
2023/11/07 07:52:43;;;;;;;2.47;0.50;;;10.70;99.90;;;;;;5040181;28;20024;-88
2023/11/07 07:55:12;;;;;;;3.15;0.82;;;10.70;99.90;;;;;;5074272;28;20019;-88
2023/11/07 07:57:38;;;;;;;2.17;0.40;;;10.70;99.90;;;;;;5055836;28;20028;-87
2023/11/07 08:00:15;;;;;;;2.40;0.32;;;10.80;99.90;;;;;;5056155;28;20126;-88
2023/11/07 08:02:46;;;;;;;1.55;0.50;;;10.90;99.90;;;;;;5058732;28;20082;-88
2023/11/07 08:05:17;;;;;;;2.40;0.50;;;10.80;99.90;;;;;;5059859;28;20048;-88
2023/11/07 08:07:46;;;;;;;3.13;0.50;;;10.80;99.90;;;;;;5076677;28;20036;-89
2023/11/07 08:10:19;;;;;;;2.78;0.55;;;10.90;99.90;;;;;;5059583;28;20060;-88
2023/11/07 08:12:47;;;;;;;2.95;0.52;;;10.90;99.90;;;;;;5059890;28;20387;-88
2023/11/07 08:15:13;;;;;;;3.70;0.70;;;10.90;99.90;;;;;;5059616;28;20021;-89
2023/11/07 08:17:39;;;;;;;2.55;0.40;;;10.90;99.90;;;;;;5059515;28;20021;-89
2023/11/07 08:20:24;;;;;;;2.25;0.50;;;11.00;99.90;;;;;;5054184;28;20029;-88
2023/11/07 08:22:52;;;;;;;1.45;0.50;;;11.00;99.90;;;;;;5047300;28;20037;-91
2023/11/07 08:25:17;;;;;;;2.28;0.60;;;11.10;99.90;;;;;;5050492;28;20027;-91
2023/11/07 08:27:44;;;;;;;3.75;0.52;;;11.10;99.90;;;;;;5048632;28;20012;-90
2023/11/07 08:30:14;;;;;;;3.70;0.50;;;11.00;99.90;;;;;;5048369;28;20028;-90
2023/11/07 08:32:43;;;;;;;1.05;0.47;;;11.10;99.90;;;;;;5050031;28;20206;-89
2023/11/07 08:35:18;;;;;;;2.17;0.50;;;11.10;99.90;;;;;;5047764;28;20024;-89
2023/11/07 08:37:47;;;;;;;2.30;0.45;;;11.10;99.90;;;;;;5048407;28;20021;-88
2023/11/07 08:40:16;;;;;;;1.52;0.47;;;11.10;99.90;;;;;;5067566;28;20067;-88
2023/11/07 08:42:48;;;;;;;2.60;0.45;;;11.10;99.90;;;;;;5067245;28;20025;-91
2023/11/07 08:45:21;;;;;;;0.52;0.30;;;11.10;99.90;;;;;;5050561;28;20016;-89
2023/11/07 08:47:49;;;;;;;3.67;0.30;;;11.10;99.90;;;;;;5047052;28;20021;-89
2023/11/07 08:50:15;;;;;;;2.55;0.60;;;11.10;99.90;;;;;;5050691;28;20032;-89
2023/11/07 08:52:41;;;;;;;1.38;0.35;;;11.10;99.90;;;;;;5046985;28;20512;-90
2023/11/07 08:55:09;;;;;;;1.00;0.30;;;11.10;99.90;;;;;;5049685;28;20369;-89
2023/11/07 08:57:38;;;;;;;1.67;0.43;;;11.10;99.90;;;;;;5048604;28;20024;-90
2023/11/07 09:00:07;;;;;;;2.35;0.40;;;11.10;99.90;;;;;;5058500;28;20033;-92
2023/11/07 09:02:33;;;;;;;1.15;0.50;;;11.10;99.90;;;;;;5058141;28;20025;-92
2023/11/07 09:04:59;;;;;;;1.73;0.52;;;11.10;99.90;;;;;;5058851;28;20020;-92
2023/11/07 09:07:25;;;;;;;1.42;0.50;;;11.10;99.90;;;;;;5058226;28;20099;-88
2023/11/07 09:09:51;;;;;;;1.10;0.60;;;11.10;99.90;;;;;;5058396;28;20044;-90
2023/11/07 09:12:16;;;;;;;2.25;0.32;;;11.10;99.90;;;;;;5076131;28;20356;-89
2023/11/07 09:14:47;;;;;;;2.10;0.57;;;11.10;99.90;;;;;;5045342;28;20025;-95
2023/11/07 09:17:13;;;;;;;1.27;0.40;;;11.20;99.90;;;;;;5059823;28;20021;-86
2023/11/07 09:19:39;;;;;;;3.75;0.70;;;11.20;99.90;;;;;;5048406;28;20035;-88
2023/11/07 09:22:07;;;;;;;0.60;0.40;;;11.40;99.90;;;;;;5054721;28;20103;-88
2023/11/07 09:24:33;;;;;;;0.82;0.45;;;11.50;99.90;;;;;;5043068;28;20024;-87
2023/11/07 09:26:59;;;;;;;1.10;0.40;;;11.50;99.90;;;;;;5049040;28;20017;-87
2023/11/07 09:29:24;;;;;;;1.10;0.40;;;11.40;99.90;;;;;;5050308;28;20016;-88
2023/11/07 09:31:52;;;;;;;2.42;0.35;;;11.40;99.90;;;;;;5042352;28;20025;-88
2023/11/07 09:34:22;;;;;;;0.82;0.40;;;11.40;99.90;;;;;;5054760;28;20458;-87
2023/11/07 09:36:48;;;;;;;1.95;0.40;;;11.40;99.90;;;;;;5053187;28;20115;-88
2023/11/07 09:39:14;;;;;;;1.67;0.35;;;11.50;99.90;;;;;;5049755;28;20615;-87
2023/11/07 09:41:42;;;;;;;0.70;0.30;;;11.50;99.90;;;;;;5042460;28;20099;-90
2023/11/07 09:44:13;;;;;;;1.98;0.40;;;11.60;99.90;;;;;;5056114;28;20055;-91
2023/11/07 09:46:42;;;;;;;1.25;0.25;;;11.50;99.90;;;;;;5050761;28;20021;-90
2023/11/07 09:49:08;;;;;;;3.03;0.30;;;11.60;99.90;;;;;;5047744;28;20035;-90
2023/11/07 09:51:37;;;;;;;0.30;0.22;;;11.60;99.90;;;;;;5043028;28;20029;-89
2023/11/07 09:54:05;;;;;;;2.50;0.40;;;11.60;99.90;;;;;;5053953;28;20017;-90
2023/11/07 09:56:39;;;;;;;1.83;0.40;;;11.60;99.90;;;;;;5041866;28;20012;-88
2023/11/07 09:59:26;;;;;;;1.70;0.40;;;11.60;99.90;;;;;;5047212;28;20020;-89
2023/11/07 10:01:51;;;;;;;1.02;0.30;;;11.70;99.90;;;;;;5053349;28;20048;-88
2023/11/07 10:04:19;;;;;;;0.93;0.32;;;11.60;99.90;;;;;;5054153;28;20025;-87
2023/11/07 10:06:45;;;;;;;0.57;0.35;;;11.50;99.90;;;;;;5043866;28;20012;-89
2023/11/07 10:09:14;;;;;;;0.32;0.20;;;11.40;99.90;;;;;;5044532;28;20120;-88
2023/11/07 10:11:49;;;;;;;1.20;0.20;;;11.40;99.90;;;;;;5037187;28;20021;-89
2023/11/07 10:14:18;;;;;;;2.10;0.40;;;11.30;99.90;;;;;;5071641;28;20094;-90
2023/11/07 10:16:44;;;;;;;1.05;0.22;;;11.30;99.90;;;;;;5044098;28;20162;-92
2023/11/07 10:19:18;;;;;;;1.00;0.30;;;11.30;99.90;;;;;;5045448;28;20086;-87
2023/11/07 10:21:44;;;;;;;0.40;0.30;;;11.20;99.90;;;;;;5043550;28;20072;-88
2023/11/07 10:24:09;;;;;;;1.05;0.30;;;11.20;99.90;;;;;;5046798;28;20505;-89
2023/11/07 10:26:35;;;;;;;0.73;0.38;;;11.20;99.90;;;;;;5046193;28;20022;-90
2023/11/07 10:29:13;;;;;;;1.85;0.40;;;11.20;99.90;;;;;;5048120;28;20059;-90
2023/11/07 10:31:41;;;;;;;0.95;0.17;;;11.10;99.90;;;;;;5044720;28;20450;-90
2023/11/07 10:34:19;;;;;;;2.00;0.40;;;11.10;99.90;;;;;;5046428;28;20057;-89
2023/11/07 10:36:44;;;;;;;0.63;0.28;;;11.10;99.90;;;;;;5047678;28;20477;-89
2023/11/07 10:39:17;;;;;;;1.48;0.35;;;11.10;99.90;;;;;;5063914;28;20024;-89
2023/11/07 10:41:46;;;;;;;0.40;0.30;;;11.10;99.90;;;;;;5046362;28;20043;-89
2023/11/07 10:44:24;;;;;;;1.83;0.50;;;11.20;99.90;;;;;;5048896;28;20028;-89
2023/11/07 10:46:54;;;;;;;0.73;0.30;;;11.40;99.90;;;;;;5049463;28;20372;-89
2023/11/07 10:49:21;;;;;;;2.38;0.50;;;11.40;99.90;;;;;;5047782;28;20369;-88
2023/11/07 10:51:48;;;;;;;0.50;0.20;;;11.40;99.90;;;;;;5044867;28;20024;-88
2023/11/07 10:54:14;;;;;;;2.03;0.38;;;11.40;99.90;;;;;;5044919;28;20090;-86
2023/11/07 10:56:46;;;;;;;1.23;0.40;;;11.30;99.90;;;;;;5049788;28;20021;-88
2023/11/07 10:59:24;;;;;;;2.55;0.43;;;11.30;99.90;;;;;;5045548;28;20450;-89
2023/11/07 11:01:51;;;;;;;0.98;0.30;;;11.30;99.90;;;;;;5049418;28;20487;-89
2023/11/07 11:04:20;;;;;;;0.45;0.20;;;11.20;99.90;;;;;;5044155;28;20020;-89
2023/11/07 11:06:52;;;;;;;0.38;0.20;;;11.20;99.90;;;;;;5046659;28;20031;-89
2023/11/07 11:09:22;;;;;;;0.22;0.17;;;11.20;99.90;;;;;;5041322;28;20053;-87
2023/11/07 11:11:54;;;;;;;1.48;0.28;;;11.20;99.90;;;;;;5045397;28;20040;-88
2023/11/07 11:14:20;;;;;;;;;;;11.20;99.90;;;;;;5050855;28;20016;-87
2023/11/07 11:16:48;;;;;;;2.53;0.60;;;11.10;99.90;;;;;;5048493;28;20368;-89
2023/11/07 11:19:27;;;;;;;0.50;0.10;;;11.10;99.90;;;;;;5046858;28;20028;-88
2023/11/07 11:22:18;;;;;;;0.45;0.20;;;11.00;99.90;;;;;;5039678;28;20033;-89
2023/11/07 11:25:04;;;;;;;0.32;0.10;;;11.00;99.90;;;;;;5048169;28;20044;-88
2023/11/07 11:27:35;;;;;;;1.20;0.20;;;11.00;99.90;;;;;;5067281;28;20024;-89
2023/11/07 11:30:01;;;;;;;0.70;0.20;;;11.10;99.90;;;;;;5039771;28;20021;-89
2023/11/07 11:32:28;;;;;;;0.90;0.20;;;11.00;99.90;;;;;;5050953;28;20028;-89
2023/11/07 11:35:23;;;;;;;4.28;0.38;;;11.00;99.90;;;;;;5044403;28;20078;-89
2023/11/07 11:38:13;;;;;;;0.75;0.38;;;11.10;99.90;;;;;;5043159;28;20404;-88
2023/11/07 11:41:02;;;;;;;0.63;0.35;;;11.10;99.90;;;;;;5045871;28;20478;-88
2023/11/07 11:43:34;;;;;;;0.70;0.28;;;11.20;99.90;;;;;;5054939;28;20166;-87
2023/11/07 11:46:49;;;;;;;4.30;0.40;;;11.30;99.90;;;;;;5059916;28;20085;-89
2023/11/07 11:49:17;;;;;;;1.35;0.75;;;11.30;99.90;;;;;;5042619;28;20037;-89
2023/11/07 11:51:48;;;;;;;1.50;0.50;;;11.40;99.90;;;;;;5044557;28;20032;-90
2023/11/07 11:54:34;;;;;;;2.15;0.30;;;11.50;99.90;;;;;;5056636;28;20036;-89
2023/11/07 11:57:00;;;;;;;0.85;0.30;;;11.60;99.90;;;;;;5048822;28;20092;-89
2023/11/07 11:59:48;;;;;;;0.50;0.20;;;11.80;99.90;;;;;;5077086;28;20139;-89
2023/11/07 12:02:40;;;;;;;1.13;0.28;;;11.90;99.90;;;;;;5042894;28;20060;-89
2023/11/07 12:05:12;;;;;;;0.83;0.23;;;12.00;99.90;;;;;;5066932;28;20100;-89
2023/11/07 12:07:39;;;;;;;1.48;0.30;;;12.00;99.90;;;;;;5068258;28;20036;-89
2023/11/07 12:10:08;;;;;;;1.02;0.30;;;11.90;99.90;;;;;;5056167;28;20016;-90
2023/11/07 12:12:37;;;;;;;1.30;0.22;;;11.90;99.90;;;;;;5038983;28;20025;-89
2023/11/07 12:15:03;;;;;;;1.33;0.50;;;12.00;99.90;;;;;;5049089;28;20087;-90
2023/11/07 12:17:44;;;;;;;0.52;0.35;;;12.00;99.90;;;;;;5058759;28;20115;-90
2023/11/07 12:20:11;;;;;;;1.27;0.68;;;12.00;99.90;;;;;;5042421;28;20025;-89
2023/11/07 12:22:41;;;;;;;0.57;0.25;;;12.00;99.90;;;;;;5052577;28;20025;-89
2023/11/07 12:25:17;;;;;;;1.20;0.77;;;12.00;99.90;;;;;;5049388;28;20017;-90
2023/11/07 12:28:05;;;;;;;1.23;0.57;;;12.20;99.90;;;;;;5046766;28;20111;-90
2023/11/07 12:30:32;;;;;;;0.80;0.50;;;12.20;99.90;;;;;;5049502;28;20514;-90
2023/11/07 12:32:59;;;;;;;0.77;0.30;;;12.20;99.90;;;;;;5047175;28;20084;-88
2023/11/07 12:35:25;;;;;;;1.20;0.40;;;12.20;99.90;;;;;;5070141;28;20021;-87
2023/11/07 12:37:52;;;;;;;1.13;0.30;;;12.30;99.90;;;;;;5047147;28;20013;-87
2023/11/07 12:40:18;;;;;;;0.98;0.38;;;12.20;99.90;;;;;;5044860;28;20034;-86
2023/11/07 12:43:11;;;;;;;1.92;0.40;;;12.20;99.90;;;;;;5050854;28;20064;-86
2023/11/07 12:45:38;;;;;;;1.17;0.30;;;12.20;99.90;;;;;;5035690;28;20029;-87
2023/11/07 12:48:05;;;;;;;0.40;0.17;;;12.20;99.90;;;;;;5056831;28;20028;-87
2023/11/07 12:50:46;;;;;;;0.50;0.20;;;12.10;99.90;;;;;;5055936;28;20028;-88
2023/11/07 12:53:14;;;;;;;2.58;0.60;;;12.10;99.90;;;;;;5049209;28;20013;-87